Time;durP1;ratioP1;P1;durP2;ratioP2;P2;SDS_P1;SDS_P2;PMS_P1;PMS_P2;Temp;Humidity;BMP_temperature;BMP_pressure;BME280_temperature;BME280_humidity;BME280_pressure;Samples;Min_cycle;Max_cycle;Signal;HPM_P1;HPM_P2
2021/09/24 00:01:08;;;;;;;2.40;1.70;;;22.40;52.50;;;;;;5034812;28;20772;-78
2021/09/24 00:03:37;;;;;;;2.30;1.70;;;22.40;52.60;;;;;;5034637;28;20426;-77
2021/09/24 00:06:04;;;;;;;2.25;1.75;;;22.40;52.60;;;;;;5034910;28;20390;-78
2021/09/24 00:08:30;;;;;;;2.20;1.60;;;22.40;52.50;;;;;;5034487;28;20422;-77
2021/09/24 00:10:56;;;;;;;2.00;1.60;;;22.40;52.60;;;;;;5034230;28;20486;-77
2021/09/24 00:13:22;;;;;;;2.00;1.50;;;22.40;52.50;;;;;;5034663;28;20399;-77
2021/09/24 00:15:48;;;;;;;2.13;1.60;;;22.40;52.60;;;;;;5034662;28;20474;-77
2021/09/24 00:18:14;;;;;;;2.40;1.60;;;22.40;52.40;;;;;;5034483;28;20399;-77
2021/09/24 00:20:40;;;;;;;2.70;1.70;;;22.40;52.50;;;;;;5034313;28;20723;-76
2021/09/24 00:23:05;;;;;;;2.70;1.60;;;22.40;52.60;;;;;;5034171;28;20415;-77
2021/09/24 00:25:32;;;;;;;2.30;1.70;;;22.40;52.40;;;;;;5034626;28;20396;-77
2021/09/24 00:27:59;;;;;;;3.35;1.90;;;22.40;52.50;;;;;;5034357;28;20391;-77
2021/09/24 00:30:25;;;;;;;4.45;2.28;;;22.30;52.40;;;;;;5034118;28;20399;-77
2021/09/24 00:32:51;;;;;;;2.92;1.90;;;22.30;52.50;;;;;;5033904;28;20410;-77
2021/09/24 00:35:17;;;;;;;2.95;2.05;;;22.30;52.40;;;;;;5034179;28;20403;-77
2021/09/24 00:37:43;;;;;;;3.30;2.10;;;22.30;52.50;;;;;;5033968;28;20425;-77
2021/09/24 00:40:10;;;;;;;3.10;1.90;;;22.30;52.50;;;;;;5035106;28;20395;-77
2021/09/24 00:42:37;;;;;;;2.83;2.00;;;22.30;52.50;;;;;;5034282;28;20399;-77
2021/09/24 00:45:04;;;;;;;2.60;1.90;;;22.30;52.50;;;;;;5033370;28;20403;-77
2021/09/24 00:47:30;;;;;;;2.75;1.92;;;22.30;52.40;;;;;;5034186;28;20505;-77
2021/09/24 00:49:56;;;;;;;3.03;2.03;;;22.30;52.40;;;;;;5033829;28;20964;-77
2021/09/24 00:52:22;;;;;;;2.75;2.00;;;22.30;52.50;;;;;;5033956;28;20477;-77
2021/09/24 00:54:50;;;;;;;2.78;2.10;;;22.30;52.30;;;;;;5033727;28;20753;-77
2021/09/24 00:57:18;;;;;;;2.72;1.80;;;22.30;52.40;;;;;;5034806;28;20398;-77
2021/09/24 00:59:47;;;;;;;2.90;2.00;;;22.30;52.40;;;;;;5033683;28;20407;-77
2021/09/24 01:02:12;;;;;;;2.40;2.00;;;22.20;52.40;;;;;;5033678;28;20478;-77
2021/09/24 01:04:38;;;;;;;2.55;1.95;;;22.20;52.30;;;;;;5033692;28;20415;-77
2021/09/24 01:07:04;;;;;;;3.00;2.10;;;22.20;52.30;;;;;;5033051;28;20475;-77
2021/09/24 01:09:30;;;;;;;2.58;1.80;;;22.20;52.30;;;;;;5033560;28;20757;-77
2021/09/24 01:11:55;;;;;;;2.75;1.75;;;22.20;52.30;;;;;;5033285;28;20399;-77
2021/09/24 01:14:21;;;;;;;2.50;1.80;;;22.20;52.20;;;;;;5033388;28;20466;-77
2021/09/24 01:16:47;;;;;;;2.55;1.70;;;22.20;52.20;;;;;;5033032;28;20400;-77
2021/09/24 01:19:12;;;;;;;2.77;1.70;;;22.20;52.30;;;;;;5033423;28;20432;-77
2021/09/24 01:21:42;;;;;;;2.40;1.73;;;22.20;52.30;;;;;;5033152;28;20735;-77
2021/09/24 01:24:08;;;;;;;2.45;1.88;;;22.20;52.20;;;;;;5032722;28;21110;-76
2021/09/24 01:26:34;;;;;;;2.33;1.88;;;22.20;52.30;;;;;;5033119;28;20383;-77
2021/09/24 01:29:00;;;;;;;2.42;1.90;;;22.20;52.30;;;;;;5032834;28;20753;-77
2021/09/24 01:31:26;;;;;;;3.00;2.17;;;22.20;52.20;;;;;;5033046;28;20406;-78
2021/09/24 01:33:52;;;;;;;2.40;1.70;;;22.20;52.20;;;;;;5033186;28;20885;-77
2021/09/24 01:36:18;;;;;;;2.30;1.80;;;22.20;52.30;;;;;;5034287;28;20445;-77
2021/09/24 01:38:44;;;;;;;3.00;1.80;;;22.10;52.20;;;;;;5033882;28;20391;-77
2021/09/24 01:41:10;;;;;;;2.28;1.70;;;22.20;52.10;;;;;;5032708;28;20391;-77
2021/09/24 01:43:37;;;;;;;2.25;1.60;;;22.10;52.20;;;;;;5032826;28;20758;-77
2021/09/24 01:46:04;;;;;;;2.60;1.85;;;22.10;52.20;;;;;;5033214;28;20482;-77
2021/09/24 01:48:30;;;;;;;2.35;1.60;;;22.10;52.10;;;;;;5033928;28;20399;-77
2021/09/24 01:50:56;;;;;;;2.10;1.80;;;22.10;52.10;;;;;;5033235;28;20514;-77
2021/09/24 01:53:22;;;;;;;2.65;1.70;;;22.10;52.20;;;;;;5033907;28;20426;-77
2021/09/24 01:55:48;;;;;;;2.70;1.90;;;22.10;52.10;;;;;;5033718;28;20383;-77
2021/09/24 01:58:14;;;;;;;2.17;1.60;;;22.10;52.20;;;;;;5032614;28;20893;-77
2021/09/24 02:00:40;;;;;;;2.30;1.73;;;22.10;52.00;;;;;;5032409;28;20395;-77
2021/09/24 02:03:06;;;;;;;2.40;1.85;;;22.10;52.00;;;;;;5032035;28;20414;-77
2021/09/24 02:05:32;;;;;;;2.88;2.13;;;22.10;52.00;;;;;;5031737;28;20445;-76
2021/09/24 02:07:57;;;;;;;3.13;1.73;;;22.10;51.90;;;;;;5032195;28;20414;-77
2021/09/24 02:10:23;;;;;;;2.40;1.67;;;22.10;52.00;;;;;;5033419;28;20395;-77
2021/09/24 02:12:49;;;;;;;2.20;1.80;;;22.10;52.00;;;;;;5032201;28;20445;-77
2021/09/24 02:15:15;;;;;;;2.00;1.60;;;22.10;52.00;;;;;;5032180;28;20403;-77
2021/09/24 02:17:42;;;;;;;2.70;1.63;;;22.10;52.00;;;;;;5032286;28;20394;-77
2021/09/24 02:20:09;;;;;;;2.40;1.50;;;22.10;51.90;;;;;;5033182;28;20908;-77
2021/09/24 02:22:36;;;;;;;2.45;1.77;;;22.00;51.90;;;;;;5032052;28;20399;-77
2021/09/24 02:25:02;;;;;;;2.50;1.80;;;22.10;52.00;;;;;;5031544;28;20791;-77
2021/09/24 02:27:28;;;;;;;2.20;1.60;;;22.00;51.90;;;;;;5032231;28;20950;-77
2021/09/24 02:29:54;;;;;;;2.35;1.60;;;22.00;52.00;;;;;;5031890;28;20411;-77
2021/09/24 02:32:19;;;;;;;2.33;1.77;;;22.00;52.00;;;;;;5032086;28;20395;-77
2021/09/24 02:34:45;;;;;;;2.05;1.52;;;22.00;51.90;;;;;;5031816;28;20802;-76
2021/09/24 02:37:10;;;;;;;2.30;1.67;;;22.00;52.00;;;;;;5031731;28;20425;-77
2021/09/24 02:39:36;;;;;;;2.23;1.60;;;22.00;52.00;;;;;;5031898;28;20461;-77
2021/09/24 02:42:02;;;;;;;2.30;1.60;;;22.00;52.00;;;;;;5032000;28;20390;-77
2021/09/24 02:44:27;;;;;;;2.15;1.67;;;22.00;52.00;;;;;;5031839;28;20921;-77
2021/09/24 02:46:53;;;;;;;2.00;1.60;;;22.00;51.90;;;;;;5032394;28;20896;-77
2021/09/24 02:49:19;;;;;;;1.93;1.60;;;22.00;51.90;;;;;;5031932;28;20395;-77
2021/09/24 02:51:44;;;;;;;2.20;1.80;;;22.00;51.90;;;;;;5031838;28;20395;-76
2021/09/24 02:54:10;;;;;;;2.03;1.57;;;22.00;52.00;;;;;;5031844;28;20395;-77
2021/09/24 02:56:35;;;;;;;2.25;1.40;;;22.00;52.00;;;;;;5031690;28;20399;-77
2021/09/24 02:59:01;;;;;;;2.10;1.60;;;22.00;52.00;;;;;;5030922;28;20935;-77
2021/09/24 03:01:27;;;;;;;2.58;1.60;;;22.00;52.00;;;;;;5031554;28;20429;-77
2021/09/24 03:03:53;;;;;;;2.40;1.77;;;22.00;52.00;;;;;;5031463;28;20430;-77
2021/09/24 03:06:18;;;;;;;2.15;1.58;;;22.00;52.00;;;;;;5031578;28;20788;-77
2021/09/24 03:08:44;;;;;;;2.20;1.50;;;22.00;52.00;;;;;;5031330;28;20524;-76
2021/09/24 03:11:10;;;;;;;1.83;1.45;;;22.00;51.90;;;;;;5031922;28;20383;-76
2021/09/24 03:13:35;;;;;;;2.00;1.60;;;21.90;52.00;;;;;;5031545;28;20422;-77
2021/09/24 03:16:01;;;;;;;2.47;1.55;;;22.00;52.00;;;;;;5031524;28;20502;-77
2021/09/24 03:18:27;;;;;;;2.10;1.60;;;21.90;51.90;;;;;;5030890;28;20967;-77
2021/09/24 03:20:53;;;;;;;1.88;1.52;;;21.90;51.90;;;;;;5030994;28;20460;-76
2021/09/24 03:23:20;;;;;;;2.15;1.65;;;21.90;51.90;;;;;;5031392;28;20411;-76
2021/09/24 03:25:49;;;;;;;2.22;1.60;;;21.90;51.90;;;;;;5032409;28;20406;-77
2021/09/24 03:28:16;;;;;;;1.90;1.50;;;21.90;52.00;;;;;;5031472;28;20391;-76
2021/09/24 03:30:42;;;;;;;2.00;1.60;;;21.90;52.00;;;;;;5031062;28;20730;-77
2021/09/24 03:33:08;;;;;;;2.10;1.42;;;21.90;52.00;;;;;;5030737;28;20402;-77
2021/09/24 03:35:34;;;;;;;2.10;1.50;;;21.90;51.90;;;;;;5031384;28;20387;-77
2021/09/24 03:37:59;;;;;;;2.10;1.50;;;21.90;52.00;;;;;;5031311;28;20403;-76
2021/09/24 03:40:25;;;;;;;1.67;1.38;;;21.90;52.00;;;;;;5030992;28;20426;-77
2021/09/24 03:42:51;;;;;;;1.80;1.50;;;21.90;52.00;;;;;;5031008;28;20395;-76
2021/09/24 03:45:16;;;;;;;2.20;1.50;;;21.90;52.00;;;;;;5032020;28;20457;-76
2021/09/24 03:47:42;;;;;;;1.90;1.50;;;21.90;52.00;;;;;;5031108;28;20391;-76
2021/09/24 03:50:09;;;;;;;2.22;1.48;;;21.90;51.90;;;;;;5031900;28;20832;-76
2021/09/24 03:52:34;;;;;;;1.90;1.50;;;21.90;51.90;;;;;;5031212;28;20397;-76
2021/09/24 03:55:01;;;;;;;1.83;1.33;;;21.90;51.90;;;;;;5031629;28;20391;-76
2021/09/24 03:57:27;;;;;;;1.98;1.50;;;21.90;52.00;;;;;;5031052;28;20423;-77
2021/09/24 03:59:53;;;;;;;2.22;1.50;;;21.90;51.90;;;;;;5030915;28;20394;-76
2021/09/24 04:02:18;;;;;;;2.35;1.60;;;21.90;51.80;;;;;;5030836;28;20399;-76
2021/09/24 04:04:44;;;;;;;1.83;1.40;;;21.90;51.90;;;;;;5030789;28;20996;-76
2021/09/24 04:07:10;;;;;;;2.13;1.42;;;21.90;51.90;;;;;;5030268;28;20897;-76
2021/09/24 04:09:36;;;;;;;1.70;1.30;;;21.90;51.80;;;;;;5032034;28;20451;-76
2021/09/24 04:12:02;;;;;;;2.15;1.38;;;21.90;51.90;;;;;;5030769;28;20435;-76
2021/09/24 04:14:28;;;;;;;2.08;1.30;;;21.80;51.70;;;;;;5031119;28;20399;-76
2021/09/24 04:16:53;;;;;;;2.57;1.43;;;21.80;51.70;;;;;;5031550;28;20394;-76
2021/09/24 04:19:20;;;;;;;2.30;1.50;;;21.80;51.90;;;;;;5031720;28;20383;-76
2021/09/24 04:21:47;;;;;;;2.20;1.40;;;21.90;52.00;;;;;;5030730;28;20411;-76
2021/09/24 04:24:13;;;;;;;1.50;1.30;;;21.80;51.90;;;;;;5030545;28;20509;-76
2021/09/24 04:26:39;;;;;;;1.88;1.40;;;21.80;51.80;;;;;;5030532;28;20391;-77
2021/09/24 04:29:05;;;;;;;1.83;1.42;;;21.80;51.80;;;;;;5031022;28;20440;-76
2021/09/24 04:31:31;;;;;;;2.30;1.60;;;21.80;51.90;;;;;;5033484;28;20383;-76
2021/09/24 04:33:57;;;;;;;1.98;1.45;;;21.80;51.90;;;;;;5033277;28;20476;-76
2021/09/24 04:36:23;;;;;;;2.00;1.43;;;21.80;51.90;;;;;;5034555;28;20423;-76
2021/09/24 04:38:48;;;;;;;1.85;1.40;;;21.80;51.80;;;;;;5033859;28;20398;-76
2021/09/24 04:41:14;;;;;;;1.85;1.45;;;21.80;51.90;;;;;;5033297;28;20379;-76
2021/09/24 04:43:40;;;;;;;1.92;1.55;;;21.80;51.90;;;;;;5033907;28;20761;-76
2021/09/24 04:46:06;;;;;;;1.80;1.30;;;21.80;51.80;;;;;;5033697;28;20418;-76
2021/09/24 04:48:32;;;;;;;2.20;1.43;;;21.80;51.80;;;;;;5033357;28;20384;-77
2021/09/24 04:50:59;;;;;;;2.50;1.40;;;21.80;51.70;;;;;;5033020;28;20402;-76
2021/09/24 04:53:24;;;;;;;2.83;1.30;;;21.70;51.70;;;;;;5033783;28;20395;-76
2021/09/24 04:55:50;;;;;;;1.80;1.20;;;21.70;51.60;;;;;;5033461;28;20474;-76
2021/09/24 04:58:15;;;;;;;2.95;1.30;;;21.80;51.60;;;;;;5034477;28;20491;-76
2021/09/24 05:00:41;;;;;;;2.87;1.50;;;21.70;52.00;;;;;;5034652;28;20764;-76
2021/09/24 05:03:07;;;;;;;1.90;1.35;;;21.70;51.90;;;;;;5032917;28;20926;-76
2021/09/24 05:05:32;;;;;;;1.90;1.40;;;21.80;52.00;;;;;;5033258;28;20395;-76
2021/09/24 05:07:58;;;;;;;2.47;1.50;;;21.80;52.10;;;;;;5032922;28;20502;-76
2021/09/24 05:10:24;;;;;;;2.67;1.53;;;21.80;52.10;;;;;;5033007;28;20402;-76
2021/09/24 05:12:49;;;;;;;3.45;1.65;;;21.70;52.00;;;;;;5032820;28;20958;-73
2021/09/24 05:15:15;;;;;;;2.60;1.40;;;21.70;51.40;;;;;;5032866;28;20482;-73
2021/09/24 05:17:41;;;;;;;3.90;1.30;;;21.70;51.60;;;;;;5033171;28;20474;-73
2021/09/24 05:20:07;;;;;;;2.35;1.50;;;21.70;51.50;;;;;;5031995;28;20391;-73
2021/09/24 05:22:33;;;;;;;2.27;1.50;;;21.70;53.90;;;;;;5032071;28;20419;-72
2021/09/24 05:24:59;;;;;;;4.32;1.50;;;21.70;52.80;;;;;;5032549;28;20458;-73
2021/09/24 05:27:24;;;;;;;2.50;1.60;;;21.70;53.20;;;;;;5033180;28;20388;-73
2021/09/24 05:29:50;;;;;;;2.60;1.60;;;21.70;52.20;;;;;;5033135;28;20487;-73
2021/09/24 05:32:17;;;;;;;3.20;1.60;;;21.70;52.10;;;;;;5033154;28;20478;-72
2021/09/24 05:34:43;;;;;;;4.10;1.58;;;21.70;51.70;;;;;;5031751;28;20928;-73
2021/09/24 05:37:09;;;;;;;2.60;1.42;;;21.70;52.10;;;;;;5031431;28;20430;-73
2021/09/24 05:39:35;;;;;;;2.03;1.40;;;21.70;52.00;;;;;;5032692;28;20391;-73
2021/09/24 05:42:01;;;;;;;3.63;1.60;;;21.70;52.60;;;;;;5032998;28;20380;-73
2021/09/24 05:44:26;;;;;;;2.60;1.40;;;21.70;52.50;;;;;;5032965;28;20474;-73
2021/09/24 05:46:52;;;;;;;2.97;1.73;;;21.70;52.30;;;;;;5032809;28;20458;-73
2021/09/24 05:49:18;;;;;;;3.15;1.63;;;21.70;52.60;;;;;;5031025;28;20399;-72
2021/09/24 05:51:44;;;;;;;3.95;1.60;;;21.70;52.30;;;;;;5032001;28;20557;-72
2021/09/24 05:54:10;;;;;;;3.05;1.50;;;21.70;52.40;;;;;;5031361;28;21033;-72
2021/09/24 05:56:35;;;;;;;3.03;1.37;;;21.60;52.60;;;;;;5031397;28;20469;-72
2021/09/24 05:59:01;;;;;;;3.53;1.70;;;21.60;52.60;;;;;;5032012;28;20399;-73
2021/09/24 06:01:27;;;;;;;2.60;1.43;;;21.60;52.80;;;;;;5032050;28;20399;-72
2021/09/24 06:03:54;;;;;;;3.97;1.65;;;21.60;52.90;;;;;;5032449;28;20422;-73
2021/09/24 06:06:20;;;;;;;3.70;2.03;;;21.70;54.00;;;;;;5030462;28;20892;-72
2021/09/24 06:08:50;;;;;;;3.60;2.42;;;21.80;55.10;;;;;;5030868;28;20419;-73
2021/09/24 06:11:17;;;;;;;2.80;1.80;;;21.80;54.40;;;;;;5031822;28;20387;-72
2021/09/24 06:13:43;;;;;;;4.80;1.65;;;21.80;54.00;;;;;;5031081;28;20485;-72
2021/09/24 06:16:09;;;;;;;3.53;1.70;;;21.80;53.70;;;;;;5032184;28;20441;-73
2021/09/24 06:18:34;;;;;;;2.63;1.60;;;21.70;53.60;;;;;;5032179;28;20391;-73
2021/09/24 06:21:02;;;;;;;4.90;1.57;;;21.70;53.70;;;;;;5029931;28;20510;-73
2021/09/24 06:23:28;;;;;;;3.55;1.42;;;21.70;53.80;;;;;;5031806;28;20411;-73
2021/09/24 06:25:54;;;;;;;2.55;1.60;;;21.70;53.60;;;;;;5032102;28;20426;-73
2021/09/24 06:28:20;;;;;;;3.50;1.70;;;21.70;53.50;;;;;;5030796;28;20885;-73
2021/09/24 06:30:45;;;;;;;2.75;1.58;;;21.70;53.50;;;;;;5032053;28;20474;-73
2021/09/24 06:33:11;;;;;;;3.47;1.73;;;21.70;53.60;;;;;;5030223;28;20734;-73
2021/09/24 06:35:37;;;;;;;2.75;1.50;;;21.70;53.40;;;;;;5031874;28;20938;-74
2021/09/24 06:38:02;;;;;;;3.20;1.90;;;21.70;53.30;;;;;;5030530;28;20417;-73
2021/09/24 06:40:28;;;;;;;2.88;1.60;;;21.60;53.40;;;;;;5030618;28;20391;-73
2021/09/24 06:42:55;;;;;;;3.40;1.73;;;21.70;53.60;;;;;;5031322;28;20398;-73
2021/09/24 06:45:21;;;;;;;7.80;1.80;;;21.70;53.40;;;;;;5031258;28;20403;-73
2021/09/24 06:47:47;;;;;;;3.73;1.80;;;21.70;53.30;;;;;;5031757;28;20410;-73
2021/09/24 06:50:13;;;;;;;3.92;2.13;;;21.70;53.10;;;;;;5030090;28;20457;-74
2021/09/24 06:52:39;;;;;;;2.88;1.60;;;21.70;53.00;;;;;;5029463;28;20392;-73
2021/09/24 06:55:06;;;;;;;3.60;1.98;;;21.60;52.80;;;;;;5029825;28;20418;-73
2021/09/24 06:57:31;;;;;;;5.90;2.08;;;21.60;52.70;;;;;;5031512;28;20383;-73
2021/09/24 06:59:57;;;;;;;4.70;2.03;;;21.60;52.50;;;;;;5031563;28;20387;-73
2021/09/24 07:02:23;;;;;;;4.13;1.80;;;21.60;52.40;;;;;;5030352;28;20391;-73
2021/09/24 07:04:49;;;;;;;3.50;1.80;;;21.60;52.30;;;;;;5029878;28;20506;-73
2021/09/24 07:07:14;;;;;;;3.88;1.95;;;21.60;52.40;;;;;;5029214;28;20407;-73
2021/09/24 07:09:40;;;;;;;3.20;1.60;;;21.60;52.40;;;;;;5030417;28;20896;-73
2021/09/24 07:12:06;;;;;;;2.65;1.58;;;21.60;52.50;;;;;;5031148;28;20391;-73
2021/09/24 07:14:32;;;;;;;2.20;1.70;;;21.60;52.40;;;;;;5031472;28;20396;-73
2021/09/24 07:16:58;;;;;;;3.58;1.80;;;21.60;52.40;;;;;;5029700;28;20469;-73
2021/09/24 07:19:24;;;;;;;3.17;1.83;;;21.60;52.40;;;;;;5029863;28;20500;-73
2021/09/24 07:21:50;;;;;;;2.83;1.70;;;21.60;52.40;;;;;;5031024;28;20470;-73
2021/09/24 07:24:17;;;;;;;2.47;1.60;;;21.60;52.50;;;;;;5030877;28;20469;-73
2021/09/24 07:26:44;;;;;;;3.90;1.90;;;21.60;52.40;;;;;;5029983;28;20399;-74
2021/09/24 07:29:09;;;;;;;3.63;1.98;;;21.60;52.50;;;;;;5030759;28;20394;-73
2021/09/24 07:31:35;;;;;;;3.03;1.60;;;21.60;52.50;;;;;;5029643;28;20392;-74
2021/09/24 07:34:00;;;;;;;2.63;1.77;;;21.60;52.70;;;;;;5029871;28;20391;-73
2021/09/24 07:36:27;;;;;;;2.95;1.77;;;21.60;52.50;;;;;;5029990;28;21003;-73
2021/09/24 07:38:53;;;;;;;3.00;1.60;;;21.60;52.60;;;;;;5031168;28;20410;-74
2021/09/24 07:41:20;;;;;;;2.28;1.60;;;21.60;53.20;;;;;;5029485;28;20469;-74
2021/09/24 07:43:48;;;;;;;2.47;1.65;;;21.60;52.70;;;;;;5031041;28;20438;-73
2021/09/24 07:46:14;;;;;;;2.88;1.70;;;21.60;52.70;;;;;;5029802;28;20881;-73
2021/09/24 07:48:42;;;;;;;2.27;1.80;;;21.70;52.80;;;;;;5031069;28;20413;-73
2021/09/24 07:51:09;;;;;;;3.20;1.58;;;21.60;52.70;;;;;;5029024;28;20497;-73
2021/09/24 07:53:35;;;;;;;3.58;1.70;;;21.60;52.70;;;;;;5031118;28;20390;-73
2021/09/24 07:56:00;;;;;;;2.55;1.75;;;21.60;52.80;;;;;;5029463;28;20781;-73
2021/09/24 07:58:26;;;;;;;3.50;1.80;;;21.70;52.90;;;;;;5030761;28;20486;-73
2021/09/24 08:00:51;;;;;;;3.33;1.63;;;21.70;52.80;;;;;;5029726;28;20742;-73
2021/09/24 08:03:17;;;;;;;2.53;1.60;;;21.70;52.90;;;;;;5030414;28;20757;-73
2021/09/24 08:05:43;;;;;;;3.33;1.50;;;21.70;52.90;;;;;;5033565;28;20406;-73
2021/09/24 08:08:08;;;;;;;2.40;1.50;;;21.70;52.90;;;;;;5032939;28;20409;-73
2021/09/24 08:10:34;;;;;;;3.17;1.63;;;21.70;52.90;;;;;;5033441;28;20773;-73
2021/09/24 08:13:00;;;;;;;2.23;1.40;;;21.70;53.00;;;;;;5032880;28;20903;-73
2021/09/24 08:15:25;;;;;;;2.83;1.63;;;21.70;52.80;;;;;;5033136;28;20403;-73
2021/09/24 08:17:52;;;;;;;2.17;1.50;;;21.80;52.80;;;;;;5033248;28;20752;-73
2021/09/24 08:20:18;;;;;;;2.38;1.67;;;21.70;52.60;;;;;;5033285;28;20391;-73
2021/09/24 08:22:44;;;;;;;2.95;1.60;;;21.70;52.60;;;;;;5034131;28;20387;-74
2021/09/24 08:25:13;;;;;;;3.10;1.93;;;21.80;52.80;;;;;;5032631;28;20434;-74
2021/09/24 08:27:40;;;;;;;3.47;2.13;;;21.80;52.70;;;;;;5033057;28;20395;-74
2021/09/24 08:30:11;;;;;;;3.80;1.95;;;21.80;52.80;;;;;;5034319;28;20861;-74
2021/09/24 08:32:37;;;;;;;3.30;2.17;;;21.80;52.70;;;;;;5033023;28;20387;-74
2021/09/24 08:35:05;;;;;;;4.20;2.22;;;21.80;52.50;;;;;;5033858;28;20877;-73
2021/09/24 08:37:31;;;;;;;3.38;2.00;;;21.90;52.60;;;;;;5033040;28;20482;-73
2021/09/24 08:39:57;;;;;;;2.90;2.10;;;21.90;52.60;;;;;;5032491;28;20474;-74
2021/09/24 08:42:22;;;;;;;3.92;2.30;;;21.90;52.60;;;;;;5034019;28;20917;-73
2021/09/24 08:44:49;;;;;;;4.22;2.30;;;21.90;52.70;;;;;;5033869;28;20410;-73
2021/09/24 08:47:16;;;;;;;3.35;2.20;;;21.90;52.60;;;;;;5032093;28;20388;-74
2021/09/24 08:49:43;;;;;;;3.38;2.10;;;21.90;52.60;;;;;;5032589;28;20903;-73
2021/09/24 08:52:09;;;;;;;4.77;2.27;;;21.90;52.70;;;;;;5032345;28;20433;-73
2021/09/24 08:54:35;;;;;;;4.35;2.05;;;21.90;52.70;;;;;;5032243;28;20439;-74
2021/09/24 08:57:00;;;;;;;5.65;2.50;;;22.00;52.80;;;;;;5032722;28;20387;-73
2021/09/24 08:59:26;;;;;;;14.80;3.10;;;22.00;52.80;;;;;;5032091;28;20404;-74
2021/09/24 09:02:04;;;;;;;12.40;3.20;;;22.00;53.00;;;;;;5032489;28;20391;-75
2021/09/24 09:04:46;;;;;;;12.60;3.17;;;22.10;53.00;;;;;;5032481;28;20419;-74
2021/09/24 09:07:14;;;;;;;8.95;2.80;;;22.20;53.00;;;;;;5031701;28;20521;-74
2021/09/24 09:09:46;;;;;;;9.25;2.70;;;22.20;52.90;;;;;;5032588;28;20398;-74
2021/09/24 09:12:17;;;;;;;9.50;2.70;;;22.30;53.00;;;;;;5033551;28;20760;-74
2021/09/24 09:15:00;;;;;;;6.60;2.40;;;22.40;52.90;;;;;;5034277;28;20436;-74
2021/09/24 09:17:33;;;;;;;11.88;3.05;;;22.40;52.90;;;;;;5031569;28;20391;-75
2021/09/24 09:20:21;;;;;;;8.77;2.70;;;22.50;52.90;;;;;;5032429;28;20399;-74
2021/09/24 09:23:04;;;;;;;7.43;2.93;;;22.60;52.80;;;;;;5032122;28;20430;-74
2021/09/24 09:25:33;;;;;;;7.00;2.75;;;22.70;52.90;;;;;;5031806;28;20451;-74
2021/09/24 09:28:02;;;;;;;5.80;2.85;;;22.80;52.70;;;;;;5033138;28;20420;-74
2021/09/24 09:30:29;;;;;;;8.60;2.90;;;22.80;52.60;;;;;;5031815;28;20403;-74
2021/09/24 09:33:04;;;;;;;10.60;2.78;;;22.90;52.50;;;;;;5033086;28;20446;-74
2021/09/24 09:35:36;;;;;;;7.38;3.13;;;23.00;52.30;;;;;;5031967;28;20889;-73
2021/09/24 09:38:02;;;;;;;6.15;3.05;;;23.10;52.40;;;;;;5031553;28;20395;-73
2021/09/24 09:40:28;;;;;;;6.45;2.95;;;23.20;52.20;;;;;;5033083;28;20457;-74
2021/09/24 09:42:55;;;;;;;6.50;3.20;;;23.20;52.00;;;;;;5032842;28;20398;-76
2021/09/24 09:45:23;;;;;;;5.68;2.90;;;23.30;51.90;;;;;;5031172;28;20423;-74
2021/09/24 09:47:50;;;;;;;4.17;2.80;;;23.30;52.00;;;;;;5033076;28;20436;-74
2021/09/24 09:50:25;;;;;;;6.53;3.00;;;23.40;51.90;;;;;;5031381;28;20407;-74
2021/09/24 09:53:04;;;;;;;6.68;2.90;;;23.50;51.70;;;;;;5032700;28;20399;-74
2021/09/24 09:55:36;;;;;;;4.47;2.90;;;23.50;51.60;;;;;;5031134;28;20427;-74
2021/09/24 09:58:11;;;;;;;5.45;3.00;;;23.50;51.40;;;;;;5031385;28;20395;-74
2021/09/24 10:00:57;;;;;;;5.05;3.20;;;23.50;51.30;;;;;;5031006;28;20750;-73
2021/09/24 10:03:32;;;;;;;6.30;3.10;;;23.60;51.20;;;;;;5030895;28;20411;-73
2021/09/24 10:05:58;;;;;;;6.15;3.03;;;23.70;51.10;;;;;;5031033;28;20916;-74
2021/09/24 10:08:32;;;;;;;5.35;2.80;;;23.70;51.00;;;;;;5032355;28;20407;-73
2021/09/24 10:10:59;;;;;;;7.88;3.00;;;23.80;50.90;;;;;;5031155;28;20438;-73
2021/09/24 10:13:46;;;;;;;5.38;3.08;;;23.80;50.70;;;;;;5031994;28;20973;-74
2021/09/24 10:16:11;;;;;;;6.10;3.00;;;23.90;50.70;;;;;;5030882;28;20399;-74
2021/09/24 10:18:37;;;;;;;5.30;3.05;;;23.90;50.50;;;;;;5030549;28;21081;-74
2021/09/24 10:21:02;;;;;;;6.23;3.03;;;24.00;50.40;;;;;;5028522;28;20443;-74
2021/09/24 10:23:28;;;;;;;5.72;3.03;;;24.10;50.40;;;;;;5028484;28;20415;-75
2021/09/24 10:26:01;;;;;;;5.38;3.17;;;24.10;50.20;;;;;;5028348;28;20436;-75
2021/09/24 10:28:31;;;;;;;4.50;3.03;;;24.20;50.10;;;;;;5023335;28;20430;-75
2021/09/24 10:30:58;;;;;;;4.18;2.88;;;24.20;49.90;;;;;;5028383;28;20395;-75
2021/09/24 10:33:50;;;;;;;4.53;2.80;;;24.30;49.80;;;;;;5025611;28;20485;-74
2021/09/24 10:36:34;;;;;;;5.43;2.95;;;24.30;50.00;;;;;;5024623;28;20926;-74
2021/09/24 10:39:00;;;;;;;5.17;3.17;;;24.40;50.10;;;;;;5010068;28;20937;-75
2021/09/24 10:41:26;;;;;;;5.10;2.90;;;24.40;49.80;;;;;;5017274;28;20429;-75
2021/09/24 10:43:54;;;;;;;7.37;3.53;;;24.60;49.80;;;;;;5029293;28;20473;-75
2021/09/24 10:46:47;;;;;;;4.97;3.00;;;24.50;49.70;;;;;;5029398;28;20391;-75
2021/09/24 10:49:15;;;;;;;6.00;3.15;;;24.60;49.60;;;;;;5023653;28;20419;-75
2021/09/24 10:51:47;;;;;;;5.18;3.13;;;24.70;49.30;;;;;;5028550;28;20433;-74
2021/09/24 10:54:24;;;;;;;4.30;2.90;;;24.70;49.20;;;;;;5029219;28;20430;-74
2021/09/24 10:57:03;;;;;;;5.95;3.30;;;24.80;49.00;;;;;;5029113;28;21052;-74
2021/09/24 10:59:31;;;;;;;9.40;3.83;;;24.80;48.70;;;;;;5030475;28;20399;-75
2021/09/24 11:01:57;;;;;;;7.57;4.07;;;24.70;49.00;;;;;;5031881;28;20391;-75
2021/09/24 11:04:43;;;;;;;5.70;3.63;;;24.30;49.10;;;;;;5028974;28;20426;-75
2021/09/24 11:07:10;;;;;;;9.77;3.70;;;24.00;49.50;;;;;;5028058;28;20411;-77
2021/09/24 11:09:53;;;;;;;6.18;4.13;;;23.80;49.90;;;;;;5029085;28;20391;-76
2021/09/24 11:12:19;;;;;;;5.80;3.80;;;23.70;50.00;;;;;;5029467;28;20395;-75
2021/09/24 11:14:45;;;;;;;4.70;3.45;;;23.60;50.30;;;;;;5030153;28;20730;-76
2021/09/24 11:17:32;;;;;;;5.90;3.65;;;23.60;50.50;;;;;;5029743;28;20449;-76
2021/09/24 11:19:58;;;;;;;6.00;3.38;;;23.60;50.80;;;;;;5025727;28;20431;-76
2021/09/24 11:22:38;;;;;;;5.10;3.83;;;23.50;51.00;;;;;;5031604;28;20399;-75
2021/09/24 11:25:08;;;;;;;5.63;3.90;;;23.50;51.10;;;;;;5011843;28;20425;-76
2021/09/24 11:27:45;;;;;;;5.85;3.83;;;23.50;51.30;;;;;;5012279;28;20586;-76
2021/09/24 11:30:14;;;;;;;5.15;3.60;;;23.50;51.40;;;;;;5012216;28;20476;-76
2021/09/24 11:32:45;;;;;;;5.43;3.60;;;23.40;51.50;;;;;;5012578;28;20389;-76
2021/09/24 11:35:15;;;;;;;5.28;3.60;;;23.40;51.60;;;;;;5010961;28;20428;-76
2021/09/24 11:37:43;;;;;;;4.43;3.55;;;23.30;51.70;;;;;;5012567;28;20400;-76
2021/09/24 11:40:20;;;;;;;5.00;3.60;;;23.30;51.70;;;;;;5014980;28;20394;-76
2021/09/24 11:42:53;;;;;;;7.30;3.53;;;23.30;51.80;;;;;;5014989;28;20767;-76
2021/09/24 11:45:23;;;;;;;4.75;3.63;;;23.30;51.80;;;;;;5014414;28;20479;-77
2021/09/24 11:48:02;;;;;;;5.43;3.55;;;23.20;51.80;;;;;;5015761;28;20871;-76
2021/09/24 11:50:33;;;;;;;5.63;3.50;;;23.20;51.80;;;;;;5015881;28;20482;-76
2021/09/24 11:53:02;;;;;;;6.97;3.60;;;23.20;52.00;;;;;;5014435;28;20400;-76
2021/09/24 11:55:32;;;;;;;5.10;3.60;;;23.20;51.90;;;;;;5028556;28;20418;-76
2021/09/24 11:58:03;;;;;;;6.22;3.60;;;23.20;51.90;;;;;;5032027;28;20398;-76
2021/09/24 12:00:35;;;;;;;5.60;3.45;;;23.20;51.90;;;;;;5034626;28;20390;-76
2021/09/24 12:03:21;;;;;;;4.53;3.47;;;23.20;51.90;;;;;;5035114;28;20429;-76
2021/09/24 12:06:10;;;;;;;4.85;3.35;;;23.20;51.90;;;;;;5033994;28;20454;-76
2021/09/24 12:08:45;;;;;;;5.10;3.17;;;23.20;52.00;;;;;;5034176;28;20407;-76
2021/09/24 12:11:17;;;;;;;4.60;3.10;;;23.20;52.10;;;;;;5031869;28;20391;-76
2021/09/24 12:13:49;;;;;;;4.55;3.08;;;23.20;52.10;;;;;;5031827;28;20395;-76
2021/09/24 12:16:23;;;;;;;4.43;3.35;;;23.20;52.10;;;;;;5032138;28;20408;-76
2021/09/24 12:18:58;;;;;;;5.25;3.08;;;23.20;52.20;;;;;;5033013;28;20419;-76
2021/09/24 12:21:51;;;;;;;3.78;3.05;;;23.20;52.10;;;;;;5033231;28;20419;-77
2021/09/24 12:24:29;;;;;;;3.92;3.13;;;23.20;52.20;;;;;;5032233;28;20930;-76
2021/09/24 12:27:11;;;;;;;5.15;3.05;;;23.20;52.10;;;;;;5034730;28;20478;-76
2021/09/24 12:29:42;;;;;;;4.60;3.08;;;23.20;52.10;;;;;;5034452;28;20431;-75
2021/09/24 12:32:16;;;;;;;4.07;3.00;;;23.30;52.20;;;;;;5033934;28;20425;-75
2021/09/24 12:34:42;;;;;;;5.20;3.22;;;23.30;52.30;;;;;;5033453;28;20399;-76
2021/09/24 12:37:09;;;;;;;7.10;2.90;;;23.20;52.20;;;;;;5033371;28;20395;-75
2021/09/24 12:39:40;;;;;;;4.80;3.00;;;23.30;52.40;;;;;;5034170;28;20513;-76
2021/09/24 12:42:13;;;;;;;6.60;3.17;;;23.20;52.20;;;;;;5033001;28;20418;-76
2021/09/24 12:45:10;;;;;;;6.85;2.90;;;23.30;52.50;;;;;;5026893;28;20419;-77
2021/09/24 12:47:36;;;;;;;4.85;2.80;;;23.30;52.60;;;;;;5017278;28;20395;-78
2021/09/24 12:50:09;;;;;;;4.95;3.08;;;23.40;52.60;;;;;;5021928;28;20405;-76